sensor_id;sensor_type;location;lat;lon;timestamp;noise_LAeq;noise_LA_min;noise_LA_max;noise_LA01;noise_LA95
11999;Laerm;40817;51.520;9.954;2023-02-08T00:01:15;43.10;38.37;45.33;;
11999;Laerm;40817;51.520;9.954;2023-02-08T00:03:43;46.74;40.23;63.30;;
11999;Laerm;40817;51.520;9.954;2023-02-08T00:06:11;42.64;37.88;45.60;;
11999;Laerm;40817;51.520;9.954;2023-02-08T00:08:39;42.65;38.52;44.80;;
11999;Laerm;40817;51.520;9.954;2023-02-08T00:11:08;42.93;39.58;48.64;;
11999;Laerm;40817;51.520;9.954;2023-02-08T00:13:38;43.59;40.71;45.54;;
11999;Laerm;40817;51.520;9.954;2023-02-08T00:16:06;43.18;39.92;45.17;;
11999;Laerm;40817;51.520;9.954;2023-02-08T00:18:36;43.91;38.95;49.74;;
11999;Laerm;40817;51.520;9.954;2023-02-08T00:21:09;43.07;39.21;45.20;;
11999;Laerm;40817;51.520;9.954;2023-02-08T00:23:37;43.47;39.08;45.77;;
11999;Laerm;40817;51.520;9.954;2023-02-08T00:26:05;42.79;38.52;45.83;;
11999;Laerm;40817;51.520;9.954;2023-02-08T00:28:32;42.79;39.08;44.97;;
11999;Laerm;40817;51.520;9.954;2023-02-08T00:31:00;43.17;39.46;46.13;;
11999;Laerm;40817;51.520;9.954;2023-02-08T00:33:28;43.85;40.03;45.91;;
11999;Laerm;40817;51.520;9.954;2023-02-08T00:35:59;42.89;38.95;44.80;;
11999;Laerm;40817;51.520;9.954;2023-02-08T00:38:30;43.03;40.03;45.72;;
11999;Laerm;40817;51.520;9.954;2023-02-08T00:40:58;43.29;39.08;45.66;;
11999;Laerm;40817;51.520;9.954;2023-02-08T00:43:25;43.30;39.46;49.46;;
11999;Laerm;40817;51.520;9.954;2023-02-08T00:45:54;43.47;40.23;46.78;;
11999;Laerm;40817;51.520;9.954;2023-02-08T00:48:22;44.38;40.80;48.90;;
11999;Laerm;40817;51.520;9.954;2023-02-08T00:51:00;43.77;40.98;47.32;;
11999;Laerm;40817;51.520;9.954;2023-02-08T00:53:28;43.38;40.13;45.28;;
11999;Laerm;40817;51.520;9.954;2023-02-08T00:55:56;44.08;41.30;46.55;;
11999;Laerm;40817;51.520;9.954;2023-02-08T00:58:24;43.84;40.80;45.60;;
11999;Laerm;40817;51.520;9.954;2023-02-08T01:00:52;43.52;40.53;45.45;;
11999;Laerm;40817;51.520;9.954;2023-02-08T01:03:21;43.58;40.03;46.23;;
11999;Laerm;40817;51.520;9.954;2023-02-08T01:05:48;44.07;39.81;47.65;;
11999;Laerm;40817;51.520;9.954;2023-02-08T01:08:17;43.71;39.81;45.91;;
11999;Laerm;40817;51.520;9.954;2023-02-08T01:10:46;44.02;40.80;45.83;;
11999;Laerm;40817;51.520;9.954;2023-02-08T01:13:14;43.85;41.22;45.69;;
11999;Laerm;40817;51.520;9.954;2023-02-08T01:15:41;43.80;40.62;46.45;;
11999;Laerm;40817;51.520;9.954;2023-02-08T01:18:09;44.36;41.38;46.30;;
11999;Laerm;40817;51.520;9.954;2023-02-08T01:20:37;43.34;39.46;45.36;;
11999;Laerm;40817;51.520;9.954;2023-02-08T01:23:04;43.17;39.81;56.56;;
11999;Laerm;40817;51.520;9.954;2023-02-08T01:25:33;42.79;39.08;44.80;;
11999;Laerm;40817;51.520;9.954;2023-02-08T01:28:01;43.42;39.92;45.69;;
11999;Laerm;40817;51.520;9.954;2023-02-08T01:30:28;43.37;39.92;45.48;;
11999;Laerm;40817;51.520;9.954;2023-02-08T01:32:56;43.83;40.53;46.55;;
11999;Laerm;40817;51.520;9.954;2023-02-08T01:35:23;43.15;40.23;45.04;;
11999;Laerm;40817;51.520;9.954;2023-02-08T01:37:51;43.00;39.21;45.04;;
11999;Laerm;40817;51.520;9.954;2023-02-08T01:40:19;42.99;39.21;44.87;;
11999;Laerm;40817;51.520;9.954;2023-02-08T01:42:49;42.69;39.08;44.73;;
11999;Laerm;40817;51.520;9.954;2023-02-08T01:45:26;42.96;39.81;45.07;;
11999;Laerm;40817;51.520;9.954;2023-02-08T01:48:05;43.27;40.23;45.78;;
11999;Laerm;40817;51.520;9.954;2023-02-08T01:50:43;43.16;39.70;45.72;;
11999;Laerm;40817;51.520;9.954;2023-02-08T01:53:14;43.60;40.80;46.07;;
11999;Laerm;40817;51.520;9.954;2023-02-08T01:55:46;44.03;40.23;51.37;;
11999;Laerm;40817;51.520;9.954;2023-02-08T01:58:18;43.41;40.03;45.42;;
11999;Laerm;40817;51.520;9.954;2023-02-08T02:00:47;43.61;40.23;46.15;;
11999;Laerm;40817;51.520;9.954;2023-02-08T02:03:15;42.99;39.21;45.17;;
11999;Laerm;40817;51.520;9.954;2023-02-08T02:05:48;42.22;38.67;49.00;;
11999;Laerm;40817;51.520;9.954;2023-02-08T02:08:17;42.69;39.34;45.42;;
11999;Laerm;40817;51.520;9.954;2023-02-08T02:10:47;43.58;39.21;63.18;;
11999;Laerm;40817;51.520;9.954;2023-02-08T02:13:21;42.96;39.21;45.66;;
11999;Laerm;40817;51.520;9.954;2023-02-08T02:15:50;43.34;40.23;45.69;;
11999;Laerm;40817;51.520;9.954;2023-02-08T02:18:24;43.25;38.52;45.72;;
11999;Laerm;40817;51.520;9.954;2023-02-08T02:25:06;42.47;38.95;51.17;;
11999;Laerm;40817;51.520;9.954;2023-02-08T02:28:24;42.87;38.52;45.33;;
11999;Laerm;40817;51.520;9.954;2023-02-08T02:34:37;43.14;39.08;52.14;;
11999;Laerm;40817;51.520;9.954;2023-02-08T02:37:22;43.56;40.53;45.72;;
11999;Laerm;40817;51.520;9.954;2023-02-08T02:40:14;43.26;38.95;49.30;;
11999;Laerm;40817;51.520;9.954;2023-02-08T02:43:00;43.79;40.33;47.09;;
11999;Laerm;40817;51.520;9.954;2023-02-08T02:45:56;44.03;40.62;46.02;;
11999;Laerm;40817;51.520;9.954;2023-02-08T02:48:41;43.52;39.46;45.94;;
11999;Laerm;40817;51.520;9.954;2023-02-08T02:51:16;44.27;40.71;61.13;;
11999;Laerm;40817;51.520;9.954;2023-02-08T02:53:51;43.16;39.70;44.97;;
11999;Laerm;40817;51.520;9.954;2023-02-08T02:56:25;42.67;39.08;45.51;;
11999;Laerm;40817;51.520;9.954;2023-02-08T02:59:00;43.38;39.46;45.77;;
11999;Laerm;40817;51.520;9.954;2023-02-08T03:01:29;43.87;40.53;45.66;;
11999;Laerm;40817;51.520;9.954;2023-02-08T03:03:58;43.35;39.58;45.86;;
11999;Laerm;40817;51.520;9.954;2023-02-08T03:06:39;44.17;40.98;48.45;;
11999;Laerm;40817;51.520;9.954;2023-02-08T03:09:52;43.83;40.33;45.99;;
11999;Laerm;40817;51.520;9.954;2023-02-08T03:12:35;43.01;39.46;45.17;;
11999;Laerm;40817;51.520;9.954;2023-02-08T03:15:14;43.77;40.71;45.86;;
11999;Laerm;40817;51.520;9.954;2023-02-08T03:18:04;42.91;38.95;44.94;;
11999;Laerm;40817;51.520;9.954;2023-02-08T03:20:40;43.08;39.70;47.65;;
11999;Laerm;40817;51.520;9.954;2023-02-08T03:23:19;42.83;39.21;45.20;;
11999;Laerm;40817;51.520;9.954;2023-02-08T03:25:51;42.60;39.34;46.73;;
11999;Laerm;40817;51.520;9.954;2023-02-08T03:28:34;42.95;39.46;45.20;;
11999;Laerm;40817;51.520;9.954;2023-02-08T03:31:14;42.81;39.34;45.75;;
11999;Laerm;40817;51.520;9.954;2023-02-08T03:33:47;42.51;38.52;44.58;;
11999;Laerm;40817;51.520;9.954;2023-02-08T03:36:24;42.54;38.81;44.73;;
11999;Laerm;40817;51.520;9.954;2023-02-08T03:38:54;43.26;39.46;46.73;;
11999;Laerm;40817;51.520;9.954;2023-02-08T03:41:27;42.82;38.81;45.23;;
11999;Laerm;40817;51.520;9.954;2023-02-08T03:44:02;43.41;40.13;55.73;;
11999;Laerm;40817;51.520;9.954;2023-02-08T03:46:35;43.73;40.03;51.30;;
11999;Laerm;40817;51.520;9.954;2023-02-08T03:49:13;42.91;39.21;45.04;;
11999;Laerm;40817;51.520;9.954;2023-02-08T03:51:45;42.82;38.95;45.97;;
11999;Laerm;40817;51.520;9.954;2023-02-08T03:54:22;43.39;39.92;49.89;;
11999;Laerm;40817;51.520;9.954;2023-02-08T03:56:56;43.18;38.95;55.24;;
11999;Laerm;40817;51.520;9.954;2023-02-08T03:59:36;42.19;37.32;45.39;;
11999;Laerm;40817;51.520;9.954;2023-02-08T04:02:31;42.81;38.37;48.91;;
11999;Laerm;40817;51.520;9.954;2023-02-08T04:05:21;43.13;39.46;46.13;;
11999;Laerm;40817;51.520;9.954;2023-02-08T04:08:12;46.44;39.21;56.13;;
11999;Laerm;40817;51.520;9.954;2023-02-08T04:10:59;43.18;39.46;48.05;;
11999;Laerm;40817;51.520;9.954;2023-02-08T04:13:47;43.25;39.81;45.86;;
11999;Laerm;40817;51.520;9.954;2023-02-08T04:16:15;43.16;39.70;45.04;;
11999;Laerm;40817;51.520;9.954;2023-02-08T04:18:43;42.91;39.46;44.90;;
11999;Laerm;40817;51.520;9.954;2023-02-08T04:21:13;43.12;39.34;45.14;;
11999;Laerm;40817;51.520;9.954;2023-02-08T04:23:42;43.12;39.46;48.26;;
11999;Laerm;40817;51.520;9.954;2023-02-08T04:26:10;44.07;40.71;46.08;;
11999;Laerm;40817;51.520;9.954;2023-02-08T04:28:40;45.67;41.46;52.95;;
11999;Laerm;40817;51.520;9.954;2023-02-08T04:31:10;43.40;40.43;45.86;;
11999;Laerm;40817;51.520;9.954;2023-02-08T04:33:38;43.48;40.53;45.23;;
11999;Laerm;40817;51.520;9.954;2023-02-08T04:36:06;43.75;41.30;47.28;;
11999;Laerm;40817;51.520;9.954;2023-02-08T04:38:34;43.63;40.71;46.59;;
11999;Laerm;40817;51.520;9.954;2023-02-08T04:41:03;45.67;41.46;54.22;;
11999;Laerm;40817;51.520;9.954;2023-02-08T04:43:31;44.06;40.98;49.10;;
11999;Laerm;40817;51.520;9.954;2023-02-08T04:45:59;43.71;40.89;46.43;;
11999;Laerm;40817;51.520;9.954;2023-02-08T04:48:26;44.26;40.71;47.02;;
11999;Laerm;40817;51.520;9.954;2023-02-08T04:50:54;43.85;40.80;45.48;;
11999;Laerm;40817;51.520;9.954;2023-02-08T04:53:28;43.50;39.92;45.57;;
11999;Laerm;40817;51.520;9.954;2023-02-08T04:55:55;43.44;40.53;46.84;;
11999;Laerm;40817;51.520;9.954;2023-02-08T04:58:24;43.70;40.13;45.51;;
11999;Laerm;40817;51.520;9.954;2023-02-08T05:00:52;43.57;40.03;45.23;;
11999;Laerm;40817;51.520;9.954;2023-02-08T05:03:23;43.44;39.58;45.04;;
11999;Laerm;40817;51.520;9.954;2023-02-08T05:05:57;43.92;41.06;45.80;;
11999;Laerm;40817;51.520;9.954;2023-02-08T05:08:25;43.87;40.13;45.75;;
11999;Laerm;40817;51.520;9.954;2023-02-08T05:10:54;44.69;41.53;49.97;;
11999;Laerm;40817;51.520;9.954;2023-02-08T05:13:26;43.74;40.33;59.86;;
11999;Laerm;40817;51.520;9.954;2023-02-08T05:15:53;43.60;40.89;48.26;;
11999;Laerm;40817;51.520;9.954;2023-02-08T05:18:24;43.55;40.71;45.33;;
11999;Laerm;40817;51.520;9.954;2023-02-08T05:20:55;43.52;40.13;50.60;;
11999;Laerm;40817;51.520;9.954;2023-02-08T05:23:23;43.82;40.18;62.34;;
11999;Laerm;40817;51.520;9.954;2023-02-08T05:25:51;43.88;40.71;56.22;;
11999;Laerm;40817;51.520;9.954;2023-02-08T05:28:19;44.08;40.80;54.25;;
11999;Laerm;40817;51.520;9.954;2023-02-08T05:30:48;43.99;39.46;45.66;;
11999;Laerm;40817;51.520;9.954;2023-02-08T05:33:17;43.84;40.89;49.75;;
11999;Laerm;40817;51.520;9.954;2023-02-08T05:35:46;43.99;40.43;51.42;;
11999;Laerm;40817;51.520;9.954;2023-02-08T05:38:14;43.68;40.23;60.33;;
11999;Laerm;40817;51.520;9.954;2023-02-08T05:40:42;43.93;40.43;57.24;;
11999;Laerm;40817;51.520;9.954;2023-02-08T05:43:09;44.06;40.98;47.04;;
11999;Laerm;40817;51.520;9.954;2023-02-08T05:45:37;44.27;41.30;57.83;;
11999;Laerm;40817;51.520;9.954;2023-02-08T05:48:06;45.32;41.14;57.27;;
11999;Laerm;40817;51.520;9.954;2023-02-08T05:50:33;44.83;41.68;52.28;;
11999;Laerm;40817;51.520;9.954;2023-02-08T05:53:08;44.06;41.22;51.76;;
11999;Laerm;40817;51.520;9.954;2023-02-08T05:55:35;43.99;39.92;45.51;;
11999;Laerm;40817;51.520;9.954;2023-02-08T05:58:03;44.10;40.71;49.92;;
11999;Laerm;40817;51.520;9.954;2023-02-08T06:00:30;43.93;40.13;49.85;;
11999;Laerm;40817;51.520;9.954;2023-02-08T06:02:58;43.89;39.46;53.80;;
11999;Laerm;40817;51.520;9.954;2023-02-08T06:05:27;43.59;39.92;53.70;;
11999;Laerm;40817;51.520;9.954;2023-02-08T06:07:54;43.57;40.53;58.30;;
11999;Laerm;40817;51.520;9.954;2023-02-08T06:10:25;43.66;40.80;50.17;;
11999;Laerm;40817;51.520;9.954;2023-02-08T06:12:52;44.51;40.62;54.60;;
11999;Laerm;40817;51.520;9.954;2023-02-08T06:15:20;43.94;41.22;50.40;;
11999;Laerm;40817;51.520;9.954;2023-02-08T06:17:48;44.39;41.14;54.97;;
11999;Laerm;40817;51.520;9.954;2023-02-08T06:20:16;44.35;41.06;52.74;;
11999;Laerm;40817;51.520;9.954;2023-02-08T06:22:45;44.29;39.70;48.61;;
11999;Laerm;40817;51.520;9.954;2023-02-08T06:25:13;44.26;40.89;54.06;;
11999;Laerm;40817;51.520;9.954;2023-02-08T06:27:41;44.35;41.33;58.76;;
11999;Laerm;40817;51.520;9.954;2023-02-08T06:30:10;44.80;41.75;56.57;;
11999;Laerm;40817;51.520;9.954;2023-02-08T06:32:38;44.80;41.81;54.95;;
11999;Laerm;40817;51.520;9.954;2023-02-08T06:35:07;45.26;41.82;51.38;;
11999;Laerm;40817;51.520;9.954;2023-02-08T06:37:34;44.22;41.53;48.73;;
11999;Laerm;40817;51.520;9.954;2023-02-08T06:40:04;44.66;41.82;53.41;;
11999;Laerm;40817;51.520;9.954;2023-02-08T06:42:32;44.46;41.46;48.57;;
11999;Laerm;40817;51.520;9.954;2023-02-08T06:45:00;44.52;41.30;50.12;;
11999;Laerm;40817;51.520;9.954;2023-02-08T06:47:28;45.42;42.09;59.70;;
11999;Laerm;40817;51.520;9.954;2023-02-08T06:49:55;44.42;41.38;47.42;;
11999;Laerm;40817;51.520;9.954;2023-02-08T06:52:23;44.44;41.75;52.98;;
11999;Laerm;40817;51.520;9.954;2023-02-08T06:54:50;44.38;40.71;52.73;;
11999;Laerm;40817;51.520;9.954;2023-02-08T06:57:19;45.05;42.35;54.25;;
11999;Laerm;40817;51.520;9.954;2023-02-08T06:59:47;44.66;41.89;49.90;;
11999;Laerm;40817;51.520;9.954;2023-02-08T07:02:17;45.13;42.35;57.86;;
11999;Laerm;40817;51.520;9.954;2023-02-08T07:04:49;44.66;41.30;51.48;;
11999;Laerm;40817;51.520;9.954;2023-02-08T07:07:17;57.87;41.68;73.18;;
11999;Laerm;40817;51.520;9.954;2023-02-08T07:09:45;52.01;41.53;71.09;;
11999;Laerm;40817;51.520;9.954;2023-02-08T07:12:15;48.38;41.75;74.35;;
11999;Laerm;40817;51.520;9.954;2023-02-08T07:14:44;44.34;40.89;58.44;;
11999;Laerm;40817;51.520;9.954;2023-02-08T07:17:12;47.36;42.03;61.05;;
11999;Laerm;40817;51.520;9.954;2023-02-08T07:19:43;44.24;40.43;55.47;;
11999;Laerm;40817;51.520;9.954;2023-02-08T07:22:10;44.60;41.68;49.70;;
11999;Laerm;40817;51.520;9.954;2023-02-08T07:24:39;44.75;41.46;50.27;;
11999;Laerm;40817;51.520;9.954;2023-02-08T07:27:10;44.85;40.43;52.19;;
11999;Laerm;40817;51.520;9.954;2023-02-08T07:29:39;44.51;40.71;63.11;;
11999;Laerm;40817;51.520;9.954;2023-02-08T07:32:09;46.79;41.14;73.65;;
11999;Laerm;40817;51.520;9.954;2023-02-08T07:34:37;45.11;41.61;62.52;;
11999;Laerm;40817;51.520;9.954;2023-02-08T07:37:06;44.13;41.06;50.04;;
11999;Laerm;40817;51.520;9.954;2023-02-08T07:39:34;44.26;40.89;60.35;;
11999;Laerm;40817;51.520;9.954;2023-02-08T07:42:06;45.55;41.14;64.52;;
11999;Laerm;40817;51.520;9.954;2023-02-08T07:44:35;45.99;42.35;58.68;;
11999;Laerm;40817;51.520;9.954;2023-02-08T07:47:03;44.54;41.38;51.81;;
11999;Laerm;40817;51.520;9.954;2023-02-08T07:49:32;44.54;41.38;50.43;;
11999;Laerm;40817;51.520;9.954;2023-02-08T07:52:02;45.23;40.98;61.23;;
11999;Laerm;40817;51.520;9.954;2023-02-08T07:54:32;45.02;40.80;62.60;;
11999;Laerm;40817;51.520;9.954;2023-02-08T07:57:03;44.93;41.46;58.52;;
11999;Laerm;40817;51.520;9.954;2023-02-08T07:59:35;44.94;39.21;59.45;;
11999;Laerm;40817;51.520;9.954;2023-02-08T08:02:07;44.88;41.14;58.31;;
11999;Laerm;40817;51.520;9.954;2023-02-08T08:04:41;45.51;41.30;54.16;;
11999;Laerm;40817;51.520;9.954;2023-02-08T08:07:13;45.71;41.75;52.70;;
11999;Laerm;40817;51.520;9.954;2023-02-08T08:09:40;44.84;40.98;56.73;;
11999;Laerm;40817;51.520;9.954;2023-02-08T08:12:08;44.18;40.80;51.47;;
11999;Laerm;40817;51.520;9.954;2023-02-08T08:14:35;46.19;41.68;66.59;;
11999;Laerm;40817;51.520;9.954;2023-02-08T08:17:03;44.15;40.98;55.00;;
11999;Laerm;40817;51.520;9.954;2023-02-08T08:19:30;45.29;41.06;61.96;;
11999;Laerm;40817;51.520;9.954;2023-02-08T08:21:59;44.16;41.46;59.05;;
11999;Laerm;40817;51.520;9.954;2023-02-08T08:24:27;44.17;40.89;46.02;;
11999;Laerm;40817;51.520;9.954;2023-02-08T08:26:57;44.45;41.75;48.90;;
11999;Laerm;40817;51.520;9.954;2023-02-08T08:29:24;44.33;41.38;53.99;;
11999;Laerm;40817;51.520;9.954;2023-02-08T08:31:52;44.05;40.03;52.35;;
11999;Laerm;40817;51.520;9.954;2023-02-08T08:34:20;44.22;40.98;51.30;;
11999;Laerm;40817;51.520;9.954;2023-02-08T08:36:49;44.09;41.22;55.89;;
11999;Laerm;40817;51.520;9.954;2023-02-08T08:39:18;44.53;41.38;52.58;;
11999;Laerm;40817;51.520;9.954;2023-02-08T08:41:45;45.50;40.62;66.32;;
11999;Laerm;40817;51.520;9.954;2023-02-08T08:44:13;44.11;40.53;47.02;;
11999;Laerm;40817;51.520;9.954;2023-02-08T08:46:40;44.17;39.34;50.83;;
11999;Laerm;40817;51.520;9.954;2023-02-08T08:49:09;44.04;40.33;57.31;;
11999;Laerm;40817;51.520;9.954;2023-02-08T08:51:36;44.60;41.22;58.95;;
11999;Laerm;40817;51.520;9.954;2023-02-08T08:54:05;45.32;39.08;62.60;;
11999;Laerm;40817;51.520;9.954;2023-02-08T08:56:34;43.04;38.52;52.88;;
11999;Laerm;40817;51.520;9.954;2023-02-08T08:59:02;44.28;40.23;52.53;;
11999;Laerm;40817;51.520;9.954;2023-02-08T09:01:29;44.82;41.89;51.03;;
11999;Laerm;40817;51.520;9.954;2023-02-08T09:03:57;43.95;40.23;47.40;;
11999;Laerm;40817;51.520;9.954;2023-02-08T09:06:24;44.04;40.89;59.27;;
11999;Laerm;40817;51.520;9.954;2023-02-08T09:08:52;44.32;40.89;59.40;;
11999;Laerm;40817;51.520;9.954;2023-02-08T09:11:20;44.12;40.71;59.89;;
11999;Laerm;40817;51.520;9.954;2023-02-08T09:13:48;47.07;39.81;73.41;;
11999;Laerm;40817;51.520;9.954;2023-02-08T09:16:18;44.32;40.80;58.76;;
11999;Laerm;40817;51.520;9.954;2023-02-08T09:18:46;44.20;41.22;58.13;;
11999;Laerm;40817;51.520;9.954;2023-02-08T09:21:17;43.48;40.53;57.54;;
11999;Laerm;40817;51.520;9.954;2023-02-08T09:23:45;43.62;40.03;57.43;;
11999;Laerm;40817;51.520;9.954;2023-02-08T09:26:17;43.93;40.71;49.41;;
11999;Laerm;40817;51.520;9.954;2023-02-08T09:28:45;44.62;40.13;58.02;;
11999;Laerm;40817;51.520;9.954;2023-02-08T09:31:19;43.55;39.46;61.01;;
11999;Laerm;40817;51.520;9.954;2023-02-08T09:33:50;44.76;40.03;58.14;;
11999;Laerm;40817;51.520;9.954;2023-02-08T09:36:19;43.43;40.13;48.85;;
11999;Laerm;40817;51.520;9.954;2023-02-08T09:38:49;43.47;38.95;50.21;;
11999;Laerm;40817;51.520;9.954;2023-02-08T09:41:36;43.40;39.46;50.21;;
11999;Laerm;40817;51.520;9.954;2023-02-08T09:44:19;51.27;38.95;65.19;;
11999;Laerm;40817;51.520;9.954;2023-02-08T09:46:57;44.76;40.62;55.94;;
11999;Laerm;40817;51.520;9.954;2023-02-08T09:49:31;43.22;39.46;45.51;;
11999;Laerm;40817;51.520;9.954;2023-02-08T09:52:05;43.77;39.46;59.96;;
11999;Laerm;40817;51.520;9.954;2023-02-08T09:54:40;43.85;39.92;50.97;;
11999;Laerm;40817;51.520;9.954;2023-02-08T09:57:16;43.02;39.58;46.43;;
11999;Laerm;40817;51.520;9.954;2023-02-08T09:59:54;43.21;39.46;56.92;;
11999;Laerm;40817;51.520;9.954;2023-02-08T10:02:27;42.83;39.70;51.09;;
11999;Laerm;40817;51.520;9.954;2023-02-08T10:04:59;43.08;38.37;50.08;;
11999;Laerm;40817;51.520;9.954;2023-02-08T10:07:29;49.22;40.23;58.29;;
11999;Laerm;40817;51.520;9.954;2023-02-08T10:10:06;44.05;40.62;50.37;;
11999;Laerm;40817;51.520;9.954;2023-02-08T10:12:42;43.01;39.70;49.56;;
11999;Laerm;40817;51.520;9.954;2023-02-08T10:15:26;43.34;40.13;55.56;;
11999;Laerm;40817;51.520;9.954;2023-02-08T10:18:18;43.22;39.34;52.18;;
11999;Laerm;40817;51.520;9.954;2023-02-08T10:21:07;43.50;39.70;53.84;;
11999;Laerm;40817;51.520;9.954;2023-02-08T10:24:06;45.43;39.92;60.27;;
11999;Laerm;40817;51.520;9.954;2023-02-08T10:26:46;43.21;39.70;48.28;;
11999;Laerm;40817;51.520;9.954;2023-02-08T10:29:54;43.40;39.46;51.45;;
11999;Laerm;40817;51.520;9.954;2023-02-08T10:32:49;43.16;39.92;48.36;;
11999;Laerm;40817;51.520;9.954;2023-02-08T10:35:26;43.80;40.62;49.84;;
11999;Laerm;40817;51.520;9.954;2023-02-08T10:37:55;44.05;39.92;54.34;;
11999;Laerm;40817;51.520;9.954;2023-02-08T10:40:31;43.69;39.92;52.73;;
11999;Laerm;40817;51.520;9.954;2023-02-08T10:43:14;43.29;38.95;50.67;;
11999;Laerm;40817;51.520;9.954;2023-02-08T10:45:53;43.09;38.95;53.14;;
11999;Laerm;40817;51.520;9.954;2023-02-08T10:48:41;43.67;39.58;55.99;;
11999;Laerm;40817;51.520;9.954;2023-02-08T10:51:16;44.07;40.23;65.54;;
11999;Laerm;40817;51.520;9.954;2023-02-08T10:53:45;43.79;40.23;53.23;;
11999;Laerm;40817;51.520;9.954;2023-02-08T10:56:41;43.53;40.13;51.79;;
11999;Laerm;40817;51.520;9.954;2023-02-08T10:59:20;43.95;38.81;51.66;;
11999;Laerm;40817;51.520;9.954;2023-02-08T11:01:49;53.63;40.62;66.52;;
11999;Laerm;40817;51.520;9.954;2023-02-08T11:04:18;51.45;40.98;65.72;;
11999;Laerm;40817;51.520;9.954;2023-02-08T11:06:49;46.50;40.98;65.44;;
11999;Laerm;40817;51.520;9.954;2023-02-08T11:09:26;54.13;39.92;66.58;;
11999;Laerm;40817;51.520;9.954;2023-02-08T11:11:56;44.05;39.70;53.00;;
11999;Laerm;40817;51.520;9.954;2023-02-08T11:14:27;43.57;38.81;56.78;;
11999;Laerm;40817;51.520;9.954;2023-02-08T11:17:01;43.02;38.95;49.94;;
11999;Laerm;40817;51.520;9.954;2023-02-08T11:19:34;42.97;39.08;55.58;;
11999;Laerm;40817;51.520;9.954;2023-02-08T11:22:06;43.22;39.21;62.24;;
11999;Laerm;40817;51.520;9.954;2023-02-08T11:24:38;43.21;39.08;48.61;;
11999;Laerm;40817;51.520;9.954;2023-02-08T11:27:32;42.72;37.52;55.54;;
11999;Laerm;40817;51.520;9.954;2023-02-08T11:30:22;42.85;37.12;50.83;;
11999;Laerm;40817;51.520;9.954;2023-02-08T11:33:17;43.85;40.23;62.13;;
11999;Laerm;40817;51.520;9.954;2023-02-08T11:36:02;43.77;38.67;65.62;;
11999;Laerm;40817;51.520;9.954;2023-02-08T11:38:35;42.63;38.67;61.95;;
11999;Laerm;40817;51.520;9.954;2023-02-08T11:41:17;42.37;38.81;51.22;;
11999;Laerm;40817;51.520;9.954;2023-02-08T11:43:58;44.30;40.71;59.52;;
11999;Laerm;40817;51.520;9.954;2023-02-08T11:46:33;43.42;38.67;55.92;;
11999;Laerm;40817;51.520;9.954;2023-02-08T11:49:01;44.67;37.70;69.89;;
11999;Laerm;40817;51.520;9.954;2023-02-08T11:51:32;43.29;37.70;63.18;;
11999;Laerm;40817;51.520;9.954;2023-02-08T11:54:04;41.98;37.70;53.22;;
11999;Laerm;40817;51.520;9.954;2023-02-08T11:56:33;46.94;36.91;63.39;;
11999;Laerm;40817;51.520;9.954;2023-02-08T11:59:16;43.29;39.08;58.31;;
11999;Laerm;40817;51.520;9.954;2023-02-08T12:01:47;42.73;38.05;51.47;;
11999;Laerm;40817;51.520;9.954;2023-02-08T12:04:16;42.15;38.52;57.07;;
11999;Laerm;40817;51.520;9.954;2023-02-08T12:07:25;42.98;38.37;58.89;;
11999;Laerm;40817;51.520;9.954;2023-02-08T12:10:58;43.31;39.08;59.45;;
11999;Laerm;40817;51.520;9.954;2023-02-08T12:13:51;43.91;38.21;60.36;;
11999;Laerm;40817;51.520;9.954;2023-02-08T12:16:45;42.37;38.37;53.35;;
11999;Laerm;40817;51.520;9.954;2023-02-08T12:22:34;42.43;37.70;52.18;;
11999;Laerm;40817;51.520;9.954;2023-02-08T12:25:25;43.75;39.34;53.44;;
11999;Laerm;40817;51.520;9.954;2023-02-08T12:28:03;43.69;39.34;55.48;;
11999;Laerm;40817;51.520;9.954;2023-02-08T12:30:38;43.38;38.95;52.25;;
11999;Laerm;40817;51.520;9.954;2023-02-08T12:33:33;44.40;38.37;64.97;;
11999;Laerm;40817;51.520;9.954;2023-02-08T12:36:29;43.44;38.21;58.36;;
11999;Laerm;40817;51.520;9.954;2023-02-08T12:39:30;43.46;37.12;59.68;;
11999;Laerm;40817;51.520;9.954;2023-02-08T12:42:43;42.97;37.12;54.08;;
11999;Laerm;40817;51.520;9.954;2023-02-08T12:48:59;42.81;38.21;55.84;;
11999;Laerm;40817;51.520;9.954;2023-02-08T12:51:41;43.96;38.67;66.18;;
11999;Laerm;40817;51.520;9.954;2023-02-08T12:54:21;43.00;37.88;55.56;;
11999;Laerm;40817;51.520;9.954;2023-02-08T12:56:50;42.44;36.56;49.23;;
11999;Laerm;40817;51.520;9.954;2023-02-08T12:59:25;42.73;38.05;49.56;;
11999;Laerm;40817;51.520;9.954;2023-02-08T13:02:02;42.61;38.37;54.95;;
11999;Laerm;40817;51.520;9.954;2023-02-08T13:04:38;42.84;38.21;48.61;;
11999;Laerm;40817;51.520;9.954;2023-02-08T13:07:15;43.49;36.69;56.86;;
11999;Laerm;40817;51.520;9.954;2023-02-08T13:09:54;42.77;38.52;45.77;;
11999;Laerm;40817;51.520;9.954;2023-02-08T13:12:28;43.42;39.08;53.97;;
11999;Laerm;40817;51.520;9.954;2023-02-08T13:15:06;43.05;38.37;55.61;;
11999;Laerm;40817;51.520;9.954;2023-02-08T13:17:44;42.86;38.05;60.06;;
11999;Laerm;40817;51.520;9.954;2023-02-08T13:20:32;43.07;38.21;54.33;;
11999;Laerm;40817;51.520;9.954;2023-02-08T13:23:14;42.65;38.21;49.25;;
11999;Laerm;40817;51.520;9.954;2023-02-08T13:25:44;42.86;39.46;47.54;;
11999;Laerm;40817;51.520;9.954;2023-02-08T13:28:20;42.21;37.70;55.46;;
11999;Laerm;40817;51.520;9.954;2023-02-08T13:31:00;42.66;38.52;51.53;;
11999;Laerm;40817;51.520;9.954;2023-02-08T13:33:40;42.47;38.95;49.93;;
11999;Laerm;40817;51.520;9.954;2023-02-08T13:36:23;42.30;38.05;48.88;;
11999;Laerm;40817;51.520;9.954;2023-02-08T13:38:55;43.08;37.52;57.11;;
11999;Laerm;40817;51.520;9.954;2023-02-08T13:41:26;42.91;38.21;61.01;;
11999;Laerm;40817;51.520;9.954;2023-02-08T13:44:00;42.93;36.45;53.93;;
11999;Laerm;40817;51.520;9.954;2023-02-08T13:46:36;45.31;39.21;61.26;;
11999;Laerm;40817;51.520;9.954;2023-02-08T13:49:52;41.96;36.91;57.90;;
11999;Laerm;40817;51.520;9.954;2023-02-08T13:52:48;41.99;37.70;52.94;;
11999;Laerm;40817;51.520;9.954;2023-02-08T13:56:01;42.74;37.88;60.80;;
11999;Laerm;40817;51.520;9.954;2023-02-08T13:59:04;42.81;37.70;56.66;;
11999;Laerm;40817;51.520;9.954;2023-02-08T14:01:34;43.69;39.21;66.21;;
11999;Laerm;40817;51.520;9.954;2023-02-08T14:04:32;56.23;40.53;71.07;;
11999;Laerm;40817;51.520;9.954;2023-02-08T14:07:29;43.14;38.05;57.42;;
11999;Laerm;40817;51.520;9.954;2023-02-08T14:10:25;42.88;38.81;51.07;;
11999;Laerm;40817;51.520;9.954;2023-02-08T14:13:02;42.86;38.52;50.80;;
11999;Laerm;40817;51.520;9.954;2023-02-08T14:15:38;43.54;38.95;55.63;;
11999;Laerm;40817;51.520;9.954;2023-02-08T14:18:24;43.47;39.58;49.41;;
11999;Laerm;40817;51.520;9.954;2023-02-08T14:21:03;43.39;38.52;55.79;;
11999;Laerm;40817;51.520;9.954;2023-02-08T14:23:36;42.78;37.32;49.07;;
11999;Laerm;40817;51.520;9.954;2023-02-08T14:26:09;43.90;38.52;60.62;;
11999;Laerm;40817;51.520;9.954;2023-02-08T14:28:46;42.63;38.81;53.64;;
11999;Laerm;40817;51.520;9.954;2023-02-08T14:31:20;42.97;38.81;50.29;;
11999;Laerm;40817;51.520;9.954;2023-02-08T14:33:53;43.45;38.81;56.38;;
11999;Laerm;40817;51.520;9.954;2023-02-08T14:36:29;44.72;39.08;71.85;;
11999;Laerm;40817;51.520;9.954;2023-02-08T14:39:23;42.62;37.12;55.42;;